Forty Two — WDD4780 — position and weather

sailwx.info

Track history (hours):
 
Tides and Currents Weather Stations Pressure Air Temp Water Temp Dewpoint Dewpoint Depression Visibility Wind Speed Wind Dir Waves Ship Positions

Forty Two

Owner: allen, christopher h, port angeles, WA. More information available from US FCC via Universal Licensing System and Coast Guard Vessel Documentation Center.

Last reported at 2017-Dec-11 16:46 UTC. Time now 2017-Dec-13 19:02 UTC.
Position N 29°36' W 092°17'.

Length 38 m.

Type: Passenger vessel. MMSI: 367455780.

Date/timePositionNaut miles runAvg speedWind from/ knotsBaromVisibWave heightAir tempDewpointWater temp
2017-Dec-11 16:46N 29°36' W 092°17'415.8
2017-Dec-11 16:30N 29°40' W 092°15'714.0
2017-Dec-11 16:00N 29°46' W 092°11'1 1.8
2017-Dec-11 15:30N 29°47' W 092°11'0 0.0
2017-Dec-11 15:00N 29°47' W 092°11'0 0.0
2017-Dec-11 14:30N 29°47' W 092°11'0 0.0
2017-Dec-11 14:00N 29°47' W 092°11'0 0.0
2017-Dec-11 13:30N 29°47' W 092°11'0 0.0
2017-Dec-11 13:00N 29°47' W 092°11'0 0.0
2017-Dec-11 12:30N 29°47' W 092°11'0 0.0
2017-Dec-11 12:00N 29°47' W 092°11'0 0.0
2017-Dec-11 11:30N 29°47' W 092°11'0 0.0
2017-Dec-11 11:00N 29°47' W 092°11'5 9.3
2017-Dec-11 10:31N 29°43' W 092°15'917.0
2017-Dec-11 10:00N 29°35' W 092°18'1 0.1
2017-Dec-10 23:07N 29°36' W 092°18'217.1
2017-Dec-10 23:01N 29°37' W 092°16'815.9
2017-Dec-10 22:31N 29°45' W 092°13'3 5.4
2017-Dec-10 22:01N 29°47' W 092°11'0 0.0
2017-Dec-10 21:31N 29°47' W 092°11'0 0.0
2017-Dec-10 21:01N 29°47' W 092°11'0 0.0
2017-Dec-10 20:31N 29°47' W 092°11'0 0.0
2017-Dec-10 20:01N 29°47' W 092°11'0 0.0
2017-Dec-10 19:31N 29°47' W 092°11'0 0.0
2017-Dec-10 19:00N 29°47' W 092°11'0 0.0
2017-Dec-10 18:31N 29°47' W 092°11'0 0.0
2017-Dec-10 18:01N 29°47' W 092°11'0 0.0
2017-Dec-10 17:31N 29°47' W 092°11'0 0.0
2017-Dec-10 17:01N 29°47' W 092°11'0 0.0
2017-Dec-10 16:31N 29°47' W 092°11'0 0.0
2017-Dec-10 16:00N 29°47' W 092°11'0 0.0
2017-Dec-10 15:31N 29°47' W 092°11'0 0.0
2017-Dec-10 15:01N 29°47' W 092°11'0 0.0
2017-Dec-10 14:31N 29°47' W 092°11'0 0.0
2017-Dec-10 14:00N 29°47' W 092°11'0 0.0
2017-Dec-10 13:30N 29°47' W 092°11'0 0.0
2017-Dec-10 13:00N 29°47' W 092°11'0 0.0
2017-Dec-10 12:31N 29°47' W 092°11'0 0.0
2017-Dec-10 12:01N 29°47' W 092°11'0 0.0
2017-Dec-10 11:31N 29°47' W 092°11'0 0.0
2017-Dec-10 11:01N 29°47' W 092°11'0 0.0
2017-Dec-10 10:31N 29°47' W 092°11'0 0.0
2017-Dec-10 10:01N 29°47' W 092°11'0 0.0
2017-Dec-10 09:30N 29°47' W 092°11'0 0.0
2017-Dec-10 09:00N 29°47' W 092°11'0 0.0
2017-Dec-10 08:31N 29°47' W 092°11'0 0.0
2017-Dec-10 08:01N 29°47' W 092°11'0 0.0
2017-Dec-10 06:04N 29°47' W 092°11'0 0.0
2017-Dec-10 06:00N 29°47' W 092°11'0 0.0
2017-Dec-10 05:30N 29°47' W 092°11'0 0.0
2017-Dec-10 05:00N 29°47' W 092°11'0 0.0
2017-Dec-10 04:30N 29°47' W 092°11'0 0.0
2017-Dec-10 04:00N 29°47' W 092°11'0 0.0
2017-Dec-10 03:30N 29°47' W 092°11'0 0.0
2017-Dec-10 03:00N 29°47' W 092°11'0 0.0
2017-Dec-10 02:30N 29°47' W 092°11'0 0.0
2017-Dec-10 02:00N 29°47' W 092°11'0 0.0
2017-Dec-10 01:30N 29°47' W 092°11'0 0.0
2017-Dec-10 01:00N 29°47' W 092°11'0 0.0
2017-Dec-10 00:30N 29°47' W 092°11'0 0.0
2017-Dec-10 00:01N 29°47' W 092°11'0 0.0
2017-Dec-09 23:30N 29°47' W 092°11'0 0.1
2017-Dec-09 23:00N 29°47' W 092°11'0 0.0
2017-Dec-09 22:30N 29°47' W 092°11'0 0.0
2017-Dec-09 22:00N 29°47' W 092°11'0 0.0
2017-Dec-09 21:31N 29°47' W 092°11'0 0.0
2017-Dec-09 21:00N 29°47' W 092°11'0 0.0
2017-Dec-09 20:30N 29°47' W 092°11'0 0.0
2017-Dec-09 20:00N 29°47' W 092°11'0 0.0
2017-Dec-09 19:30N 29°47' W 092°11'0 0.0
2017-Dec-09 19:00N 29°47' W 092°11'0 0.0
2017-Dec-09 18:30N 29°47' W 092°11'0 0.0
2017-Dec-09 18:00N 29°47' W 092°11'0 0.0
2017-Dec-09 17:30N 29°47' W 092°11'0 0.2
2017-Dec-09 17:00N 29°47' W 092°11'2 3.2
2017-Dec-09 16:31N 29°47' W 092°09'0 0.0
2017-Dec-09 16:00N 29°47' W 092°09'0 0.0
2017-Dec-09 15:30N 29°47' W 092°09'0 0.4
2017-Dec-09 15:00N 29°47' W 092°10'1 2.6
2017-Dec-09 14:30N 29°47' W 092°11'0 0.0
2017-Dec-09 14:00N 29°47' W 092°11'0 0.0
2017-Dec-09 13:30N 29°47' W 092°11'0 0.0
2017-Dec-09 13:00N 29°47' W 092°11'0 0.0
2017-Dec-09 12:31N 29°47' W 092°11'0 0.0
2017-Dec-09 12:00N 29°47' W 092°11'0 0.0
2017-Dec-09 05:57N 29°47' W 092°11'0 0.0
2017-Dec-09 05:30N 29°47' W 092°11'0 0.0
2017-Dec-09 05:00N 29°47' W 092°11'0 0.0
2017-Dec-09 04:30N 29°47' W 092°11'0 0.0
2017-Dec-09 04:00N 29°47' W 092°11'0 0.0
2017-Dec-09 03:30N 29°47' W 092°11'0 0.0
2017-Dec-09 03:00N 29°47' W 092°11'0 0.0
2017-Dec-09 02:30N 29°47' W 092°11'0 0.0
2017-Dec-09 02:00N 29°47' W 092°11'0 0.0
2017-Dec-09 01:30N 29°47' W 092°11'0 0.0
2017-Dec-09 01:00N 29°47' W 092°11'0 0.0
2017-Dec-09 00:30N 29°47' W 092°11'0 0.0
2017-Dec-09 00:00N 29°47' W 092°11'0 0.0
2017-Dec-08 23:30N 29°47' W 092°11'0 0.0
2017-Dec-08 23:00N 29°47' W 092°11'0 0.0
2017-Dec-08 22:30N 29°47' W 092°11'0 0.0
2017-Dec-08 22:00N 29°47' W 092°11'0 0.0
2017-Dec-08 21:30N 29°47' W 092°11'0 0.0
2017-Dec-08 21:00N 29°47' W 092°11'0 0.0
2017-Dec-08 20:30N 29°47' W 092°11'0 0.0
2017-Dec-08 20:00N 29°47' W 092°11'0 0.0
2017-Dec-08 19:30N 29°47' W 092°11'0 0.0
2017-Dec-08 19:00N 29°47' W 092°11'0 0.0
2017-Dec-08 18:30N 29°47' W 092°11'0 0.0
2017-Dec-08 18:00N 29°47' W 092°11'0 0.0
2017-Dec-08 17:30N 29°47' W 092°11'0 0.0
2017-Dec-08 17:00N 29°47' W 092°11'0 0.0
2017-Dec-08 16:30N 29°47' W 092°11'0 0.0
2017-Dec-08 16:00N 29°47' W 092°11'0 0.0
2017-Dec-08 15:30N 29°47' W 092°11'0 0.0
2017-Dec-08 15:00N 29°47' W 092°11'0 0.0
2017-Dec-08 14:30N 29°47' W 092°11'0 0.0
2017-Dec-08 14:00N 29°47' W 092°11'0 0.0
2017-Dec-08 13:30N 29°47' W 092°11'0 0.0
2017-Dec-08 13:00N 29°47' W 092°11'0 0.0
2017-Dec-08 12:30N 29°47' W 092°11'0 0.0
2017-Dec-08 06:05N 29°47' W 092°11'0 0.0
2017-Dec-08 06:00N 29°47' W 092°11'0 0.0
2017-Dec-08 05:30N 29°47' W 092°11'0 0.0
2017-Dec-08 05:00N 29°47' W 092°11'0 0.0
2017-Dec-08 04:30N 29°47' W 092°11'0 0.0
2017-Dec-08 04:00N 29°47' W 092°11'0 0.0
2017-Dec-08 03:30N 29°47' W 092°11'0 0.0
2017-Dec-08 03:00N 29°47' W 092°11'0 0.0
2017-Dec-08 02:30N 29°47' W 092°11'0 0.0
2017-Dec-08 02:00N 29°47' W 092°11'0 0.0
2017-Dec-08 01:30N 29°47' W 092°11'0 0.0
2017-Dec-08 01:00N 29°47' W 092°11'0 0.0
2017-Dec-08 00:30N 29°47' W 092°11'0 0.0
2017-Dec-08 00:00N 29°47' W 092°11'0 0.0
2017-Dec-07 23:30N 29°47' W 092°11'0 0.0
2017-Dec-07 23:00N 29°47' W 092°11'0 0.0
2017-Dec-07 22:30N 29°47' W 092°11'0 0.0
2017-Dec-07 22:00N 29°47' W 092°11'0 0.0
2017-Dec-07 21:30N 29°47' W 092°11'0 0.0
2017-Dec-07 21:00N 29°47' W 092°11'0 0.0
2017-Dec-07 20:30N 29°47' W 092°11'0 0.0
2017-Dec-07 20:00N 29°47' W 092°11'0 0.0
2017-Dec-07 19:30N 29°47' W 092°11'0 0.0
2017-Dec-07 19:00N 29°47' W 092°11'0 0.0
2017-Dec-07 18:30N 29°47' W 092°11'0 0.0
2017-Dec-07 18:00N 29°47' W 092°11'0 0.0
2017-Dec-07 17:30N 29°47' W 092°11'0 0.0
2017-Dec-07 17:00N 29°47' W 092°11'0 0.0
2017-Dec-07 16:30N 29°47' W 092°11'0 0.0
2017-Dec-07 16:00N 29°47' W 092°11'0 0.0
2017-Dec-07 15:30N 29°47' W 092°11'0 0.0
2017-Dec-07 15:00N 29°47' W 092°11'0 0.0
2017-Dec-07 14:30N 29°47' W 092°11'0 0.0
2017-Dec-07 14:00N 29°47' W 092°11'0 0.0
2017-Dec-07 13:30N 29°47' W 092°11'0 0.0
2017-Dec-07 13:00N 29°47' W 092°11'0 0.0
2017-Dec-07 12:30N 29°47' W 092°11'0 0.0
2017-Dec-07 12:00N 29°47' W 092°11'0 0.0
2017-Dec-07 05:56N 29°47' W 092°11'0 0.0
2017-Dec-07 05:30N 29°47' W 092°11'0 0.0
2017-Dec-07 05:00N 29°47' W 092°11'0 0.0
2017-Dec-07 04:30N 29°47' W 092°11'0 0.0
2017-Dec-07 04:00N 29°47' W 092°11'0 0.0
2017-Dec-07 03:30N 29°47' W 092°11'0 0.0
2017-Dec-07 03:00N 29°47' W 092°11'0 0.0
2017-Dec-07 02:30N 29°47' W 092°11'0 0.0
2017-Dec-07 02:00N 29°47' W 092°11'0 0.0
2017-Dec-07 01:30N 29°47' W 092°11'0 0.0
2017-Dec-07 01:00N 29°47' W 092°11'0 0.0
2017-Dec-07 00:30N 29°47' W 092°11'0 0.0
2017-Dec-07 00:00N 29°47' W 092°11'0 0.0
2017-Dec-06 23:30N 29°47' W 092°11'0 0.0
2017-Dec-06 23:00N 29°47' W 092°11'0 0.0
2017-Dec-06 22:30N 29°47' W 092°11'0 0.0
2017-Dec-06 22:00N 29°47' W 092°11'0 0.0
2017-Dec-06 21:30N 29°47' W 092°11'0 0.0
2017-Dec-06 21:00N 29°47' W 092°11'  
2017-Dec-04 03:36N 29°38' W 092°16'218.9
2017-Dec-04 03:30N 29°39' W 092°16'816.7
2017-Dec-04 03:00N 29°46' W 092°10'1 1.4
2017-Dec-04 02:30N 29°47' W 092°11'0 0.0
2017-Dec-04 02:00N 29°47' W 092°11'0 0.0
2017-Dec-04 01:30N 29°47' W 092°11'0 0.0
2017-Dec-04 01:00N 29°47' W 092°11'0 0.0
2017-Dec-04 00:30N 29°47' W 092°11'0 0.0
2017-Dec-04 00:00N 29°47' W 092°11'0 0.0
2017-Dec-03 23:30N 29°47' W 092°11'0 0.0
2017-Dec-03 23:00N 29°47' W 092°11'0 0.0
2017-Dec-03 22:30N 29°47' W 092°11'0 0.0
2017-Dec-03 22:00N 29°47' W 092°11'0 0.0
2017-Dec-03 21:30N 29°47' W 092°11'0 0.0
2017-Dec-03 21:00N 29°47' W 092°11'0 0.0
2017-Dec-03 20:30N 29°47' W 092°11'0 0.0
2017-Dec-03 20:00N 29°47' W 092°11'0 0.0
2017-Dec-03 19:30N 29°47' W 092°11'0 0.0
2017-Dec-03 19:00N 29°47' W 092°11'0 0.0
2017-Dec-03 18:30N 29°47' W 092°11'0 0.0
2017-Dec-03 18:00N 29°47' W 092°11'0 0.0
2017-Dec-03 17:30N 29°47' W 092°11'0 0.0
2017-Dec-03 17:00N 29°47' W 092°11'0 0.0
2017-Dec-03 16:30N 29°47' W 092°11'0 0.0
2017-Dec-03 16:00N 29°47' W 092°11'0 0.0
2017-Dec-03 15:30N 29°47' W 092°11'0 0.0
2017-Dec-03 15:00N 29°47' W 092°11'0 0.0
2017-Dec-03 14:30N 29°47' W 092°11'0 0.0
2017-Dec-03 14:00N 29°47' W 092°11'0 0.0
2017-Dec-03 13:30N 29°47' W 092°11'0 0.0
2017-Dec-03 13:00N 29°47' W 092°11'0 0.0
2017-Dec-03 12:30N 29°47' W 092°11'0 0.0
2017-Dec-03 05:56N 29°47' W 092°11'0 0.0
2017-Dec-03 05:30N 29°47' W 092°11'0 0.0
2017-Dec-03 05:00N 29°47' W 092°11'0 0.0
2017-Dec-03 04:30N 29°47' W 092°11'0 0.0
2017-Dec-03 04:00N 29°47' W 092°11'0 0.0
2017-Dec-03 03:31N 29°47' W 092°11'0 0.0
2017-Dec-03 02:58N 29°47' W 092°11'0 0.0
2017-Dec-03 02:30N 29°47' W 092°11'0 0.0
2017-Dec-03 02:00N 29°47' W 092°11'0 0.0
2017-Dec-03 01:30N 29°47' W 092°11'0 0.0
2017-Dec-03 01:00N 29°47' W 092°11'0 0.0
2017-Dec-03 00:30N 29°47' W 092°11'0 0.0
2017-Dec-03 00:00N 29°47' W 092°11'0 0.0
2017-Dec-02 23:30N 29°47' W 092°11'0 0.0
2017-Dec-02 23:00N 29°47' W 092°11'0 0.0
2017-Dec-02 22:31N 29°47' W 092°11'0 0.0
2017-Dec-02 22:00N 29°47' W 092°11'0 0.0
2017-Dec-02 21:31N 29°47' W 092°11'0 0.0
2017-Dec-02 21:00N 29°47' W 092°11'0 0.0
2017-Dec-02 20:30N 29°47' W 092°11'0 0.0
2017-Dec-02 20:01N 29°47' W 092°11'0 0.0
2017-Dec-02 19:30N 29°47' W 092°11'0 0.0
2017-Dec-02 19:01N 29°47' W 092°11'0 0.0
2017-Dec-02 18:30N 29°47' W 092°11'0 0.0
2017-Dec-02 18:01N 29°47' W 092°11'0 0.0
2017-Dec-02 17:30N 29°47' W 092°11'0 0.0
2017-Dec-02 17:00N 29°47' W 092°11'0 0.0
2017-Dec-02 16:30N 29°47' W 092°11'0 0.0
2017-Dec-02 16:00N 29°47' W 092°11'0 0.0
2017-Dec-02 15:30N 29°47' W 092°11'0 0.0
2017-Dec-02 15:00N 29°47' W 092°11'0 0.0
2017-Dec-02 14:31N 29°47' W 092°11'0 0.0
2017-Dec-02 14:00N 29°47' W 092°11'0 0.0
2017-Dec-02 13:30N 29°47' W 092°11'0 0.0
2017-Dec-02 13:00N 29°47' W 092°11'0 0.0
2017-Dec-02 12:30N 29°47' W 092°11'0 0.0
2017-Dec-02 12:00N 29°47' W 092°11'0 0.0
2017-Dec-02 06:07N 29°47' W 092°11'0 0.0
2017-Dec-02 06:01N 29°47' W 092°11'0 0.0
2017-Dec-02 05:30N 29°47' W 092°11'0 0.0
2017-Dec-02 05:00N 29°47' W 092°11'0 0.0
2017-Dec-02 04:30N 29°47' W 092°11'0 0.0
2017-Dec-02 04:00N 29°47' W 092°11'0 0.0
2017-Dec-02 03:30N 29°47' W 092°11'0 0.0
2017-Dec-02 03:00N 29°47' W 092°11'0 0.0
2017-Dec-02 02:31N 29°47' W 092°11'0 0.0
2017-Dec-02 02:01N 29°47' W 092°11'0 0.0
2017-Dec-02 01:30N 29°47' W 092°11'0 0.0
2017-Dec-02 01:00N 29°47' W 092°11'0 0.0
2017-Dec-02 00:30N 29°47' W 092°11'0 0.0
2017-Dec-02 00:00N 29°47' W 092°11'0 0.0
2017-Dec-01 23:30N 29°47' W 092°11'0 0.0
2017-Dec-01 23:00N 29°47' W 092°11'0 0.0
2017-Dec-01 22:30N 29°47' W 092°11'0 0.0
2017-Dec-01 22:00N 29°47' W 092°11'0 0.0
2017-Dec-01 21:30N 29°47' W 092°11'0 0.0
2017-Dec-01 21:00N 29°47' W 092°11'0 0.0
2017-Dec-01 20:30N 29°47' W 092°11'0 0.0
2017-Dec-01 20:00N 29°47' W 092°11'0 0.0
2017-Dec-01 19:30N 29°47' W 092°11'0 0.0
2017-Dec-01 19:00N 29°47' W 092°11'0 0.0
2017-Dec-01 18:30N 29°47' W 092°11'0 0.0
2017-Dec-01 18:00N 29°47' W 092°11'0 0.0
2017-Dec-01 17:30N 29°47' W 092°11'0 0.0
2017-Dec-01 17:00N 29°47' W 092°11'  
Track history (hours):
 
Tides and Currents Weather Stations Pressure Air Temp Water Temp Dewpoint Dewpoint Depression Visibility Wind Speed Wind Dir Waves Ship Positions

Forty Two

Owner: allen, christopher h, port angeles, WA. More information available from US FCC via Universal Licensing System and Coast Guard Vessel Documentation Center.

Last reported at 2017-Dec-11 16:46 UTC. Time now 2017-Dec-13 19:02 UTC.
Position N 29°36' W 092°17'.

Length 38 m.

Type: Passenger vessel. MMSI: 367455780.

Date/timePositionNaut miles runAvg speedWind from/ knotsBaromVisibWave heightAir tempDewpointWater temp
2017-Dec-11 16:46N 29°36' W 092°17'415.8
2017-Dec-11 16:30N 29°40' W 092°15'714.0
2017-Dec-11 16:00N 29°46' W 092°11'1 1.8
2017-Dec-11 15:30N 29°47' W 092°11'0 0.0
2017-Dec-11 15:00N 29°47' W 092°11'0 0.0
2017-Dec-11 14:30N 29°47' W 092°11'0 0.0
2017-Dec-11 14:00N 29°47' W 092°11'0 0.0
2017-Dec-11 13:30N 29°47' W 092°11'0 0.0
2017-Dec-11 13:00N 29°47' W 092°11'0 0.0
2017-Dec-11 12:30N 29°47' W 092°11'0 0.0
2017-Dec-11 12:00N 29°47' W 092°11'0 0.0
2017-Dec-11 11:30N 29°47' W 092°11'0 0.0
2017-Dec-11 11:00N 29°47' W 092°11'5 9.3
2017-Dec-11 10:31N 29°43' W 092°15'917.0
2017-Dec-11 10:00N 29°35' W 092°18'1 0.1
2017-Dec-10 23:07N 29°36' W 092°18'217.1
2017-Dec-10 23:01N 29°37' W 092°16'815.9
2017-Dec-10 22:31N 29°45' W 092°13'3 5.4
2017-Dec-10 22:01N 29°47' W 092°11'0 0.0
2017-Dec-10 21:31N 29°47' W 092°11'0 0.0
2017-Dec-10 21:01N 29°47' W 092°11'0 0.0
2017-Dec-10 20:31N 29°47' W 092°11'0 0.0
2017-Dec-10 20:01N 29°47' W 092°11'0 0.0
2017-Dec-10 19:31N 29°47' W 092°11'0 0.0
2017-Dec-10 19:00N 29°47' W 092°11'0 0.0
2017-Dec-10 18:31N 29°47' W 092°11'0 0.0
2017-Dec-10 18:01N 29°47' W 092°11'0 0.0
2017-Dec-10 17:31N 29°47' W 092°11'0 0.0
2017-Dec-10 17:01N 29°47' W 092°11'0 0.0
2017-Dec-10 16:31N 29°47' W 092°11'0 0.0
2017-Dec-10 16:00N 29°47' W 092°11'0 0.0
2017-Dec-10 15:31N 29°47' W 092°11'0 0.0
2017-Dec-10 15:01N 29°47' W 092°11'0 0.0
2017-Dec-10 14:31N 29°47' W 092°11'0 0.0
2017-Dec-10 14:00N 29°47' W 092°11'0 0.0
2017-Dec-10 13:30N 29°47' W 092°11'0 0.0
2017-Dec-10 13:00N 29°47' W 092°11'0 0.0
2017-Dec-10 12:31N 29°47' W 092°11'0 0.0
2017-Dec-10 12:01N 29°47' W 092°11'0 0.0
2017-Dec-10 11:31N 29°47' W 092°11'0 0.0
2017-Dec-10 11:01N 29°47' W 092°11'0 0.0
2017-Dec-10 10:31N 29°47' W 092°11'0 0.0
2017-Dec-10 10:01N 29°47' W 092°11'0 0.0
2017-Dec-10 09:30N 29°47' W 092°11'0 0.0
2017-Dec-10 09:00N 29°47' W 092°11'0 0.0
2017-Dec-10 08:31N 29°47' W 092°11'0 0.0
2017-Dec-10 08:01N 29°47' W 092°11'0 0.0
2017-Dec-10 06:04N 29°47' W 092°11'0 0.0
2017-Dec-10 06:00N 29°47' W 092°11'0 0.0
2017-Dec-10 05:30N 29°47' W 092°11'0 0.0
2017-Dec-10 05:00N 29°47' W 092°11'0 0.0
2017-Dec-10 04:30N 29°47' W 092°11'0 0.0
2017-Dec-10 04:00N 29°47' W 092°11'0 0.0
2017-Dec-10 03:30N 29°47' W 092°11'0 0.0
2017-Dec-10 03:00N 29°47' W 092°11'0 0.0
2017-Dec-10 02:30N 29°47' W 092°11'0 0.0
2017-Dec-10 02:00N 29°47' W 092°11'0 0.0
2017-Dec-10 01:30N 29°47' W 092°11'0 0.0
2017-Dec-10 01:00N 29°47' W 092°11'0 0.0
2017-Dec-10 00:30N 29°47' W 092°11'0 0.0
2017-Dec-10 00:01N 29°47' W 092°11'0 0.0
2017-Dec-09 23:30N 29°47' W 092°11'0 0.1
2017-Dec-09 23:00N 29°47' W 092°11'0 0.0
2017-Dec-09 22:30N 29°47' W 092°11'0 0.0
2017-Dec-09 22:00N 29°47' W 092°11'0 0.0
2017-Dec-09 21:31N 29°47' W 092°11'0 0.0
2017-Dec-09 21:00N 29°47' W 092°11'0 0.0
2017-Dec-09 20:30N 29°47' W 092°11'0 0.0
2017-Dec-09 20:00N 29°47' W 092°11'0 0.0
2017-Dec-09 19:30N 29°47' W 092°11'0 0.0
2017-Dec-09 19:00N 29°47' W 092°11'0 0.0
2017-Dec-09 18:30N 29°47' W 092°11'0 0.0
2017-Dec-09 18:00N 29°47' W 092°11'0 0.0
2017-Dec-09 17:30N 29°47' W 092°11'0 0.2
2017-Dec-09 17:00N 29°47' W 092°11'2 3.2
2017-Dec-09 16:31N 29°47' W 092°09'0 0.0
2017-Dec-09 16:00N 29°47' W 092°09'0 0.0
2017-Dec-09 15:30N 29°47' W 092°09'0 0.4
2017-Dec-09 15:00N 29°47' W 092°10'1 2.6
2017-Dec-09 14:30N 29°47' W 092°11'0 0.0
2017-Dec-09 14:00N 29°47' W 092°11'0 0.0
2017-Dec-09 13:30N 29°47' W 092°11'0 0.0
2017-Dec-09 13:00N 29°47' W 092°11'0 0.0
2017-Dec-09 12:31N 29°47' W 092°11'0 0.0
2017-Dec-09 12:00N 29°47' W 092°11'0 0.0
2017-Dec-09 05:57N 29°47' W 092°11'0 0.0
2017-Dec-09 05:30N 29°47' W 092°11'0 0.0
2017-Dec-09 05:00N 29°47' W 092°11'0 0.0
2017-Dec-09 04:30N 29°47' W 092°11'0 0.0
2017-Dec-09 04:00N 29°47' W 092°11'0 0.0
2017-Dec-09 03:30N 29°47' W 092°11'0 0.0
2017-Dec-09 03:00N 29°47' W 092°11'0 0.0
2017-Dec-09 02:30N 29°47' W 092°11'0 0.0
2017-Dec-09 02:00N 29°47' W 092°11'0 0.0
2017-Dec-09 01:30N 29°47' W 092°11'0 0.0
2017-Dec-09 01:00N 29°47' W 092°11'0 0.0
2017-Dec-09 00:30N 29°47' W 092°11'0 0.0
2017-Dec-09 00:00N 29°47' W 092°11'0 0.0
2017-Dec-08 23:30N 29°47' W 092°11'0 0.0
2017-Dec-08 23:00N 29°47' W 092°11'0 0.0
2017-Dec-08 22:30N 29°47' W 092°11'0 0.0
2017-Dec-08 22:00N 29°47' W 092°11'0 0.0
2017-Dec-08 21:30N 29°47' W 092°11'0 0.0
2017-Dec-08 21:00N 29°47' W 092°11'0 0.0
2017-Dec-08 20:30N 29°47' W 092°11'0 0.0
2017-Dec-08 20:00N 29°47' W 092°11'0 0.0
2017-Dec-08 19:30N 29°47' W 092°11'0 0.0
2017-Dec-08 19:00N 29°47' W 092°11'0 0.0
2017-Dec-08 18:30N 29°47' W 092°11'0 0.0
2017-Dec-08 18:00N 29°47' W 092°11'0 0.0
2017-Dec-08 17:30N 29°47' W 092°11'0 0.0
2017-Dec-08 17:00N 29°47' W 092°11'0 0.0
2017-Dec-08 16:30N 29°47' W 092°11'0 0.0
2017-Dec-08 16:00N 29°47' W 092°11'0 0.0
2017-Dec-08 15:30N 29°47' W 092°11'0 0.0
2017-Dec-08 15:00N 29°47' W 092°11'0 0.0
2017-Dec-08 14:30N 29°47' W 092°11'0 0.0
2017-Dec-08 14:00N 29°47' W 092°11'0 0.0
2017-Dec-08 13:30N 29°47' W 092°11'0 0.0
2017-Dec-08 13:00N 29°47' W 092°11'0 0.0
2017-Dec-08 12:30N 29°47' W 092°11'0 0.0
2017-Dec-08 06:05N 29°47' W 092°11'0 0.0
2017-Dec-08 06:00N 29°47' W 092°11'0 0.0
2017-Dec-08 05:30N 29°47' W 092°11'0 0.0
2017-Dec-08 05:00N 29°47' W 092°11'0 0.0
2017-Dec-08 04:30N 29°47' W 092°11'0 0.0
2017-Dec-08 04:00N 29°47' W 092°11'0 0.0
2017-Dec-08 03:30N 29°47' W 092°11'0 0.0
2017-Dec-08 03:00N 29°47' W 092°11'0 0.0
2017-Dec-08 02:30N 29°47' W 092°11'0 0.0
2017-Dec-08 02:00N 29°47' W 092°11'0 0.0
2017-Dec-08 01:30N 29°47' W 092°11'0 0.0
2017-Dec-08 01:00N 29°47' W 092°11'0 0.0
2017-Dec-08 00:30N 29°47' W 092°11'0 0.0
2017-Dec-08 00:00N 29°47' W 092°11'0 0.0
2017-Dec-07 23:30N 29°47' W 092°11'0 0.0
2017-Dec-07 23:00N 29°47' W 092°11'0 0.0
2017-Dec-07 22:30N 29°47' W 092°11'0 0.0
2017-Dec-07 22:00N 29°47' W 092°11'0 0.0
2017-Dec-07 21:30N 29°47' W 092°11'0 0.0
2017-Dec-07 21:00N 29°47' W 092°11'0 0.0
2017-Dec-07 20:30N 29°47' W 092°11'0 0.0
2017-Dec-07 20:00N 29°47' W 092°11'0 0.0
2017-Dec-07 19:30N 29°47' W 092°11'0 0.0
2017-Dec-07 19:00N 29°47' W 092°11'0 0.0
2017-Dec-07 18:30N 29°47' W 092°11'0 0.0
2017-Dec-07 18:00N 29°47' W 092°11'0 0.0
2017-Dec-07 17:30N 29°47' W 092°11'0 0.0
2017-Dec-07 17:00N 29°47' W 092°11'0 0.0
2017-Dec-07 16:30N 29°47' W 092°11'0 0.0
2017-Dec-07 16:00N 29°47' W 092°11'0 0.0
2017-Dec-07 15:30N 29°47' W 092°11'0 0.0
2017-Dec-07 15:00N 29°47' W 092°11'0 0.0
2017-Dec-07 14:30N 29°47' W 092°11'0 0.0
2017-Dec-07 14:00N 29°47' W 092°11'0 0.0
2017-Dec-07 13:30N 29°47' W 092°11'0 0.0
2017-Dec-07 13:00N 29°47' W 092°11'0 0.0
2017-Dec-07 12:30N 29°47' W 092°11'0 0.0
2017-Dec-07 12:00N 29°47' W 092°11'0 0.0
2017-Dec-07 05:56N 29°47' W 092°11'0 0.0
2017-Dec-07 05:30N 29°47' W 092°11'0 0.0
2017-Dec-07 05:00N 29°47' W 092°11'0 0.0
2017-Dec-07 04:30N 29°47' W 092°11'0 0.0
2017-Dec-07 04:00N 29°47' W 092°11'0 0.0
2017-Dec-07 03:30N 29°47' W 092°11'0 0.0
2017-Dec-07 03:00N 29°47' W 092°11'0 0.0
2017-Dec-07 02:30N 29°47' W 092°11'0 0.0
2017-Dec-07 02:00N 29°47' W 092°11'0 0.0
2017-Dec-07 01:30N 29°47' W 092°11'0 0.0
2017-Dec-07 01:00N 29°47' W 092°11'0 0.0
2017-Dec-07 00:30N 29°47' W 092°11'0 0.0
2017-Dec-07 00:00N 29°47' W 092°11'0 0.0
2017-Dec-06 23:30N 29°47' W 092°11'0 0.0
2017-Dec-06 23:00N 29°47' W 092°11'0 0.0
2017-Dec-06 22:30N 29°47' W 092°11'0 0.0
2017-Dec-06 22:00N 29°47' W 092°11'0 0.0
2017-Dec-06 21:30N 29°47' W 092°11'0 0.0
2017-Dec-06 21:00N 29°47' W 092°11'  
2017-Dec-04 03:36N 29°38' W 092°16'218.9
2017-Dec-04 03:30N 29°39' W 092°16'816.7
2017-Dec-04 03:00N 29°46' W 092°10'1 1.4
2017-Dec-04 02:30N 29°47' W 092°11'0 0.0
2017-Dec-04 02:00N 29°47' W 092°11'0 0.0
2017-Dec-04 01:30N 29°47' W 092°11'0 0.0
2017-Dec-04 01:00N 29°47' W 092°11'0 0.0
2017-Dec-04 00:30N 29°47' W 092°11'0 0.0
2017-Dec-04 00:00N 29°47' W 092°11'0 0.0
2017-Dec-03 23:30N 29°47' W 092°11'0 0.0
2017-Dec-03 23:00N 29°47' W 092°11'0 0.0
2017-Dec-03 22:30N 29°47' W 092°11'0 0.0
2017-Dec-03 22:00N 29°47' W 092°11'0 0.0
2017-Dec-03 21:30N 29°47' W 092°11'0 0.0
2017-Dec-03 21:00N 29°47' W 092°11'0 0.0
2017-Dec-03 20:30N 29°47' W 092°11'0 0.0
2017-Dec-03 20:00N 29°47' W 092°11'0 0.0
2017-Dec-03 19:30N 29°47' W 092°11'0 0.0
2017-Dec-03 19:00N 29°47' W 092°11'0 0.0
2017-Dec-03 18:30N 29°47' W 092°11'0 0.0
2017-Dec-03 18:00N 29°47' W 092°11'0 0.0
2017-Dec-03 17:30N 29°47' W 092°11'0 0.0
2017-Dec-03 17:00N 29°47' W 092°11'0 0.0
2017-Dec-03 16:30N 29°47' W 092°11'0 0.0
2017-Dec-03 16:00N 29°47' W 092°11'0 0.0
2017-Dec-03 15:30N 29°47' W 092°11'0 0.0
2017-Dec-03 15:00N 29°47' W 092°11'0 0.0
2017-Dec-03 14:30N 29°47' W 092°11'0 0.0
2017-Dec-03 14:00N 29°47' W 092°11'0 0.0
2017-Dec-03 13:30N 29°47' W 092°11'0 0.0
2017-Dec-03 13:00N 29°47' W 092°11'0 0.0
2017-Dec-03 12:30N 29°47' W 092°11'0 0.0
2017-Dec-03 05:56N 29°47' W 092°11'0 0.0
2017-Dec-03 05:30N 29°47' W 092°11'0 0.0
2017-Dec-03 05:00N 29°47' W 092°11'0 0.0
2017-Dec-03 04:30N 29°47' W 092°11'0 0.0
2017-Dec-03 04:00N 29°47' W 092°11'0 0.0
2017-Dec-03 03:31N 29°47' W 092°11'0 0.0
2017-Dec-03 02:58N 29°47' W 092°11'0 0.0
2017-Dec-03 02:30N 29°47' W 092°11'0 0.0
2017-Dec-03 02:00N 29°47' W 092°11'0 0.0
2017-Dec-03 01:30N 29°47' W 092°11'0 0.0
2017-Dec-03 01:00N 29°47' W 092°11'0 0.0
2017-Dec-03 00:30N 29°47' W 092°11'0 0.0
2017-Dec-03 00:00N 29°47' W 092°11'0 0.0
2017-Dec-02 23:30N 29°47' W 092°11'0 0.0
2017-Dec-02 23:00N 29°47' W 092°11'0 0.0
2017-Dec-02 22:31N 29°47' W 092°11'0 0.0
2017-Dec-02 22:00N 29°47' W 092°11'0 0.0
2017-Dec-02 21:31N 29°47' W 092°11'0 0.0
2017-Dec-02 21:00N 29°47' W 092°11'0 0.0
2017-Dec-02 20:30N 29°47' W 092°11'0 0.0
2017-Dec-02 20:01N 29°47' W 092°11'0 0.0
2017-Dec-02 19:30N 29°47' W 092°11'0 0.0
2017-Dec-02 19:01N 29°47' W 092°11'0 0.0
2017-Dec-02 18:30N 29°47' W 092°11'0 0.0
2017-Dec-02 18:01N 29°47' W 092°11'0 0.0
2017-Dec-02 17:30N 29°47' W 092°11'0 0.0
2017-Dec-02 17:00N 29°47' W 092°11'0 0.0
2017-Dec-02 16:30N 29°47' W 092°11'0 0.0
2017-Dec-02 16:00N 29°47' W 092°11'0 0.0
2017-Dec-02 15:30N 29°47' W 092°11'0 0.0
2017-Dec-02 15:00N 29°47' W 092°11'0 0.0
2017-Dec-02 14:31N 29°47' W 092°11'0 0.0
2017-Dec-02 14:00N 29°47' W 092°11'0 0.0
2017-Dec-02 13:30N 29°47' W 092°11'0 0.0
2017-Dec-02 13:00N 29°47' W 092°11'0 0.0
2017-Dec-02 12:30N 29°47' W 092°11'0 0.0
2017-Dec-02 12:00N 29°47' W 092°11'0 0.0
2017-Dec-02 06:07N 29°47' W 092°11'0 0.0
2017-Dec-02 06:01N 29°47' W 092°11'0 0.0
2017-Dec-02 05:30N 29°47' W 092°11'0 0.0
2017-Dec-02 05:00N 29°47' W 092°11'0 0.0
2017-Dec-02 04:30N 29°47' W 092°11'0 0.0
2017-Dec-02 04:00N 29°47' W 092°11'0 0.0
2017-Dec-02 03:30N 29°47' W 092°11'0 0.0
2017-Dec-02 03:00N 29°47' W 092°11'0 0.0
2017-Dec-02 02:31N 29°47' W 092°11'0 0.0
2017-Dec-02 02:01N 29°47' W 092°11'0 0.0
2017-Dec-02 01:30N 29°47' W 092°11'0 0.0
2017-Dec-02 01:00N 29°47' W 092°11'0 0.0
2017-Dec-02 00:30N 29°47' W 092°11'0 0.0
2017-Dec-02 00:00N 29°47' W 092°11'0 0.0
2017-Dec-01 23:30N 29°47' W 092°11'0 0.0
2017-Dec-01 23:00N 29°47' W 092°11'0 0.0
2017-Dec-01 22:30N 29°47' W 092°11'0 0.0
2017-Dec-01 22:00N 29°47' W 092°11'0 0.0
2017-Dec-01 21:30N 29°47' W 092°11'0 0.0
2017-Dec-01 21:00N 29°47' W 092°11'0 0.0
2017-Dec-01 20:30N 29°47' W 092°11'0 0.0
2017-Dec-01 20:00N 29°47' W 092°11'0 0.0
2017-Dec-01 19:30N 29°47' W 092°11'0 0.0
2017-Dec-01 19:00N 29°47' W 092°11'0 0.0
2017-Dec-01 18:30N 29°47' W 092°11'0 0.0
2017-Dec-01 18:00N 29°47' W 092°11'0 0.0
2017-Dec-01 17:30N 29°47' W 092°11'0 0.0
2017-Dec-01 17:00N 29°47' W 092°11'  

Dump ship's entire track history